Time;durP1;ratioP1;P1;durP2;ratioP2;P2;SDS_P1;SDS_P2;PMS_P1;PMS_P2;Temp;Humidity;BMP_temperature;BMP_pressure;BME280_temperature;BME280_humidity;BME280_pressure;Samples;Min_cycle;Max_cycle;Signal;HPM_P1;HPM_P2
2022/08/18 00:01:47;;;;;;;6.63;6.03;;;;;;;18.30;81.05;95348.56;5052194;28;20173;-78
2022/08/18 00:04:12;;;;;;;7.28;6.65;;;;;;;18.48;81.05;95349.81;5069245;28;20229;-79
2022/08/18 00:06:39;;;;;;;6.72;6.22;;;;;;;18.48;81.10;95353.22;5048317;28;20902;-79
2022/08/18 00:09:06;;;;;;;6.47;5.95;;;;;;;18.50;81.88;95360.91;5043851;28;20189;-79
2022/08/18 00:11:36;;;;;;;7.00;6.30;;;;;;;18.47;82.01;95371.84;5041976;28;20638;-79
2022/08/18 00:14:02;;;;;;;7.45;5.90;;;;;;;18.45;81.98;95368.59;5043031;28;20527;-81
2022/08/18 00:16:27;;;;;;;7.07;6.30;;;;;;;18.44;82.77;95369.59;5032847;28;20184;-79
2022/08/18 00:18:53;;;;;;;9.32;7.60;;;;;;;18.34;83.45;95360.28;5046211;28;20246;-79
2022/08/18 00:21:18;;;;;;;6.72;6.13;;;;;;;18.34;83.38;95351.59;5038197;28;20192;-81
2022/08/18 00:23:43;;;;;;;6.97;6.40;;;;;;;18.43;83.44;95355.66;5027817;28;20181;-79
2022/08/18 00:26:09;;;;;;;7.18;6.68;;;;;;;18.33;83.22;95356.03;5028771;28;20215;-80
2022/08/18 00:28:34;;;;;;;6.70;6.20;;;;;;;18.32;84.05;95361.50;5027815;28;20213;-80
2022/08/18 00:31:00;;;;;;;8.60;6.63;;;;;;;18.28;84.37;95358.44;5031067;28;20244;-79
2022/08/18 00:33:25;;;;;;;7.00;6.40;;;;;;;18.27;85.06;95356.81;5034492;28;20637;-81
2022/08/18 00:35:51;;;;;;;7.18;6.35;;;;;;;18.13;86.04;95357.84;5031687;28;20676;-80
2022/08/18 00:38:16;;;;;;;7.15;6.45;;;;;;;18.11;86.25;95355.41;5049528;28;20185;-82
2022/08/18 00:40:45;;;;;;;7.13;6.55;;;;;;;18.09;86.68;95367.09;5046555;28;20553;-80
2022/08/18 00:43:28;;;;;;;7.50;6.72;;;;;;;18.09;86.60;95353.97;5032664;28;20211;-80
2022/08/18 00:45:53;;;;;;;7.50;6.80;;;;;;;17.96;87.82;95349.50;5030559;28;20250;-81
2022/08/18 00:48:19;;;;;;;8.02;7.25;;;;;;;17.96;87.80;95341.63;5038613;28;20660;-80
2022/08/18 00:50:47;;;;;;;7.60;7.00;;;;;;;17.89;88.09;95338.16;5026028;28;20804;-81
2022/08/18 00:53:21;;;;;;;7.32;6.72;;;;;;;17.83;88.32;95338.94;5045502;28;20232;-81
2022/08/18 00:55:47;;;;;;;8.40;7.57;;;;;;;17.96;88.25;95348.69;5043490;28;20217;-81
2022/08/18 00:58:18;;;;;;;8.02;7.32;;;;;;;17.91;88.77;95341.38;5050235;28;20192;-80
2022/08/18 01:00:44;;;;;;;7.97;7.03;;;;;;;17.84;89.00;95337.94;5048201;28;20644;-81
2022/08/18 01:03:12;;;;;;;6.95;6.35;;;;;;;18.00;88.73;95348.06;5067825;28;20189;-80
2022/08/18 01:05:42;;;;;;;8.45;7.68;;;;;;;17.86;89.52;95343.00;5011686;28;20280;-81
2022/08/18 01:08:13;;;;;;;7.88;7.15;;;;;;;17.88;89.07;95343.59;5030475;28;20665;-80
2022/08/18 01:10:39;;;;;;;7.13;6.53;;;;;;;17.87;89.09;95339.38;5047550;28;20205;-80
2022/08/18 01:13:04;;;;;;;7.38;6.78;;;;;;;17.79;89.42;95340.34;5034715;28;20222;-80
2022/08/18 01:15:31;;;;;;;7.72;6.85;;;;;;;17.88;88.71;95341.78;5030966;28;20212;-80
2022/08/18 01:23:34;;;;;;;7.75;7.05;;;;;;;17.80;89.51;95355.91;5016918;28;20198;-80
2022/08/18 01:26:01;;;;;;;8.20;7.40;;;;;;;17.80;89.99;95349.84;5046642;28;20212;-80
2022/08/18 01:28:27;;;;;;;8.32;7.30;;;;;;;17.66;91.01;95348.13;5027717;28;20209;-80
2022/08/18 01:30:56;;;;;;;7.88;7.10;;;;;;;17.60;91.43;95355.00;5029241;28;20211;-80
2022/08/18 01:33:31;;;;;;;8.27;7.53;;;;;;;17.58;92.08;95351.75;5025206;28;20253;-81
2022/08/18 01:35:58;;;;;;;8.18;7.53;;;;;;;17.61;92.66;95348.72;5044519;28;20204;-80
2022/08/18 01:38:25;;;;;;;8.82;8.00;;;;;;;17.56;93.56;95343.25;5031924;28;20255;-80
2022/08/18 01:40:51;;;;;;;9.18;8.18;;;;;;;17.53;93.73;95328.72;5025223;28;20185;-82
2022/08/18 01:43:17;;;;;;;8.38;7.57;;;;;;;17.48;93.50;95333.72;5031821;28;20205;-81
2022/08/18 01:45:43;;;;;;;8.40;7.68;;;;;;;17.39;94.14;95328.84;5028820;28;20755;-81
2022/08/18 01:48:09;;;;;;;8.02;7.43;;;;;;;17.43;94.85;95332.72;5026921;28;20201;-81
2022/08/18 01:50:38;;;;;;;8.52;7.82;;;;;;;17.55;94.15;95325.88;5047207;28;20244;-81
2022/08/18 01:53:04;;;;;;;8.48;7.68;;;;;;;17.51;94.09;95335.16;5030731;28;20177;-81
2022/08/18 01:55:34;;;;;;;8.82;8.10;;;;;;;17.54;93.89;95327.69;5044660;28;20216;-80
2022/08/18 01:58:00;;;;;;;8.88;8.02;;;;;;;17.52;93.91;95321.03;5034674;28;20304;-81
2022/08/18 02:00:26;;;;;;;8.40;7.68;;;;;;;17.37;94.49;95322.97;5032502;28;20319;-80
2022/08/18 02:02:51;;;;;;;8.32;7.40;;;;;;;17.42;94.43;95324.03;5045174;28;20185;-80
2022/08/18 02:05:32;;;;;;;8.98;8.07;;;;;;;17.50;94.25;95336.19;5027544;28;20585;-82
2022/08/18 02:07:57;;;;;;;8.02;7.30;;;;;;;17.54;93.70;95334.75;5046276;28;20185;-80
2022/08/18 02:10:22;;;;;;;8.32;7.63;;;;;;;17.58;93.19;95329.91;5047901;28;20204;-80
2022/08/18 02:12:48;;;;;;;8.05;7.35;;;;;;;17.66;92.81;95319.25;5028168;28;20213;-81
2022/08/18 02:15:13;;;;;;;8.73;7.93;;;;;;;17.68;92.30;95323.31;5029683;28;20258;-82
2022/08/18 02:17:40;;;;;;;9.18;7.95;;;;;;;17.65;92.13;95323.69;5045124;28;20182;-81
2022/08/18 02:20:07;;;;;;;8.98;8.07;;;;;;;17.67;92.23;95324.34;5046230;28;20182;-81
2022/08/18 02:22:33;;;;;;;7.88;7.18;;;;;;;17.69;91.83;95317.06;5047339;28;20710;-82
2022/08/18 02:24:58;;;;;;;8.48;7.30;;;;;;;17.72;91.16;95316.69;5028088;28;20304;-80
2022/08/18 02:27:25;;;;;;;7.72;7.05;;;;;;;17.83;90.69;95323.19;5034578;28;20185;-81
2022/08/18 02:29:51;;;;;;;7.35;6.65;;;;;;;17.90;89.44;95320.56;5022476;28;20190;-82
2022/08/18 02:32:16;;;;;;;7.45;6.85;;;;;;;17.93;89.26;95328.03;5052990;28;20197;-82
2022/08/18 02:34:41;;;;;;;7.72;6.97;;;;;;;17.83;89.22;95318.72;5031569;28;20231;-82
2022/08/18 02:37:07;;;;;;;7.85;7.20;;;;;;;17.87;89.41;95313.09;5045387;28;20181;-82
2022/08/18 02:39:34;;;;;;;8.32;7.40;;;;;;;17.94;89.00;95313.94;5028561;28;20673;-81
2022/08/18 02:41:59;;;;;;;8.20;7.57;;;;;;;17.94;89.06;95308.69;5042945;28;20193;-80
2022/08/18 02:44:24;;;;;;;7.90;7.20;;;;;;;17.91;89.17;95306.44;5062690;28;20197;-82
2022/08/18 02:46:53;;;;;;;7.82;6.97;;;;;;;17.95;88.58;95312.91;5028234;28;20647;-81
2022/08/18 02:49:18;;;;;;;7.72;7.07;;;;;;;17.96;88.48;95309.28;5044360;28;20177;-80
2022/08/18 02:51:45;;;;;;;8.02;7.30;;;;;;;17.93;87.88;95307.84;5045187;28;20738;-81
2022/08/18 02:54:10;;;;;;;8.18;7.47;;;;;;;17.95;87.93;95315.56;5061071;28;20204;-80
2022/08/18 02:56:35;;;;;;;7.57;6.88;;;;;;;17.81;88.80;95310.25;5029921;28;20564;-82
2022/08/18 02:59:07;;;;;;;8.50;7.70;;;;;;;17.78;89.60;95302.78;5029003;28;20693;-81
2022/08/18 03:01:38;;;;;;;7.78;7.13;;;;;;;17.76;89.37;95299.53;5034078;28;20356;-83
2022/08/18 03:04:05;;;;;;;8.68;7.97;;;;;;;17.64;90.46;95298.44;5041894;28;20238;-81
2022/08/18 03:06:32;;;;;;;8.25;7.45;;;;;;;17.56;91.22;95299.41;5045257;28;20188;-81
2022/08/18 03:08:57;;;;;;;8.32;7.63;;;;;;;17.54;90.90;95303.25;5031036;28;20714;-81
2022/08/18 03:11:26;;;;;;;8.73;7.45;;;;;;;17.58;91.13;95293.16;5044737;28;20306;-82
2022/08/18 03:13:51;;;;;;;8.32;7.53;;;;;;;17.59;90.65;95289.56;5026724;28;20217;-81
2022/08/18 03:16:17;;;;;;;8.85;8.05;;;;;;;17.67;89.65;95289.34;5042918;28;20217;-82
2022/08/18 03:18:43;;;;;;;8.15;7.35;;;;;;;17.60;90.18;95278.84;5046350;28;20231;-81
2022/08/18 03:21:12;;;;;;;8.10;7.40;;;;;;;17.68;90.17;95286.56;5044023;28;20641;-81
2022/08/18 03:23:39;;;;;;;8.07;7.38;;;;;;;17.77;89.49;95287.22;5025536;28;20416;-81
2022/08/18 03:26:06;;;;;;;8.57;7.80;;;;;;;17.80;89.62;95271.06;5027665;28;20230;-81
2022/08/18 03:28:32;;;;;;;8.45;7.68;;;;;;;17.79;90.07;95282.56;5029140;28;20231;-83
2022/08/18 03:30:58;;;;;;;8.73;8.02;;;;;;;17.81;90.38;95267.41;5027623;28;20575;-82
2022/08/18 03:33:23;;;;;;;8.48;7.63;;;;;;;17.87;89.75;95257.94;5031912;28;20185;-83
2022/08/18 03:35:48;;;;;;;8.10;7.40;;;;;;;17.89;89.77;95255.91;5046710;28;20209;-81
2022/08/18 03:38:13;;;;;;;9.07;8.27;;;;;;;17.92;89.64;95256.31;5027439;28;20192;-82
2022/08/18 03:40:39;;;;;;;7.68;7.07;;;;;;;17.93;89.60;95246.63;5042857;28;20613;-80
2022/08/18 03:43:05;;;;;;;7.97;7.28;;;;;;;17.96;89.13;95249.66;5024522;28;20196;-81
2022/08/18 03:45:32;;;;;;;8.13;7.32;;;;;;;17.94;88.97;95245.63;5026160;28;20339;-78
2022/08/18 03:47:59;;;;;;;9.25;8.45;;;;;;;17.80;90.04;95250.84;5046138;28;20184;-79
2022/08/18 03:50:25;;;;;;;9.23;8.25;;;;;;;17.89;90.46;95248.03;5035636;28;20212;-79
2022/08/18 03:52:50;;;;;;;8.52;7.78;;;;;;;17.90;90.43;95245.22;5022144;28;20197;-80
2022/08/18 03:55:15;;;;;;;8.60;7.90;;;;;;;17.91;91.16;95246.00;5026446;28;20217;-80
2022/08/18 03:57:42;;;;;;;8.82;8.10;;;;;;;17.91;90.19;95256.53;5063683;28;20657;-79
2022/08/18 04:00:08;;;;;;;8.68;7.88;;;;;;;17.95;90.10;95249.88;5033364;28;20170;-79
2022/08/18 04:02:34;;;;;;;9.65;8.45;;;;;;;17.91;90.02;95246.00;5069787;28;20261;-79
2022/08/18 04:04:59;;;;;;;8.38;7.68;;;;;;;17.87;91.28;95256.13;5072356;28;20214;-79
2022/08/18 04:07:24;;;;;;;7.68;6.97;;;;;;;17.87;91.08;95255.31;5062773;28;20161;-78
2022/08/18 04:09:50;;;;;;;9.10;8.30;;;;;;;17.80;91.88;95263.19;5063050;28;20210;-78
2022/08/18 04:12:15;;;;;;;9.00;8.05;;;;;;;17.81;91.45;95262.97;5074688;28;20237;-77
2022/08/18 04:14:42;;;;;;;8.25;7.55;;;;;;;17.84;91.59;95267.00;5060435;28;20221;-79
2022/08/18 04:17:08;;;;;;;8.27;7.47;;;;;;;17.85;91.53;95266.03;5047753;28;20190;-79
2022/08/18 04:19:34;;;;;;;9.45;8.25;;;;;;;17.67;92.07;95265.72;5027607;28;20191;-79
2022/08/18 04:22:00;;;;;;;8.27;7.13;;;;;;;17.58;91.81;95256.41;5046000;28;20265;-79
2022/08/18 04:24:30;;;;;;;8.10;7.40;;;;;;;17.63;91.71;95275.00;5040646;28;20283;-79
2022/08/18 04:26:57;;;;;;;8.43;7.57;;;;;;;17.69;91.30;95269.78;5034259;28;20675;-79
2022/08/18 04:29:23;;;;;;;8.05;7.25;;;;;;;17.67;91.53;95276.22;5032039;28;20186;-83
2022/08/18 04:31:50;;;;;;;8.45;7.75;;;;;;;17.73;91.35;95265.78;5041167;28;20258;-81
2022/08/18 04:34:16;;;;;;;8.68;7.88;;;;;;;17.72;91.34;95272.03;5045869;28;20216;-79
2022/08/18 04:36:41;;;;;;;9.50;8.40;;;;;;;17.69;91.52;95275.03;5021200;28;20186;-79
2022/08/18 04:39:08;;;;;;;8.95;8.07;;;;;;;17.69;91.39;95274.22;5043361;28;20622;-80
2022/08/18 04:41:35;;;;;;;8.38;7.68;;;;;;;17.71;91.37;95277.50;5043958;28;20186;-80
2022/08/18 04:44:03;;;;;;;9.13;8.20;;;;;;;17.67;91.01;95289.34;5042492;28;20196;-79
2022/08/18 04:46:30;;;;;;;9.00;8.20;;;;;;;17.63;90.94;95290.78;5024934;28;20183;-81
2022/08/18 04:48:57;;;;;;;10.10;8.00;;;;;;;17.63;91.63;95299.47;5028021;28;20178;-81
2022/08/18 04:51:27;;;;;;;8.15;7.45;;;;;;;17.61;91.51;95298.03;5047065;28;20680;-80
2022/08/18 04:53:53;;;;;;;8.60;7.72;;;;;;;17.56;90.05;95314.38;5041397;28;20208;-83
2022/08/18 04:56:24;;;;;;;8.15;7.35;;;;;;;17.66;89.57;95312.19;5044481;28;20181;-81
2022/08/18 04:58:51;;;;;;;8.85;8.05;;;;;;;17.74;88.85;95316.47;5043645;28;20186;-81
2022/08/18 05:01:21;;;;;;;8.52;7.72;;;;;;;17.77;88.32;95321.34;5041996;28;20174;-82
2022/08/18 05:03:51;;;;;;;7.55;6.95;;;;;;;17.81;87.76;95320.75;5028135;28;20205;-83
2022/08/18 05:06:18;;;;;;;7.60;6.90;;;;;;;17.80;86.87;95323.59;5046897;28;20581;-82
2022/08/18 05:08:43;;;;;;;8.13;7.43;;;;;;;17.87;86.51;95321.78;5031365;28;20181;-83
2022/08/18 05:11:09;;;;;;;7.25;6.60;;;;;;;17.90;86.87;95323.19;5029006;28;20212;-82
2022/08/18 05:13:34;;;;;;;8.65;7.85;;;;;;;17.90;87.17;95317.94;5046916;28;20185;-81
2022/08/18 05:16:02;;;;;;;7.90;6.20;;;;;;;17.94;85.85;95319.19;5038078;28;20201;-81
2022/08/18 05:18:29;;;;;;;6.55;5.95;;;;;;;17.99;84.70;95316.75;5028968;28;20560;-81
2022/08/18 05:20:55;;;;;;;6.53;5.93;;;;;;;18.06;84.35;95317.59;5030127;28;20177;-82
2022/08/18 05:23:21;;;;;;;6.75;6.20;;;;;;;18.08;83.60;95323.44;5046900;28;20181;-82
2022/08/18 05:25:47;;;;;;;7.03;6.32;;;;;;;18.10;83.68;95319.59;5024999;28;20293;-82
2022/08/18 05:28:13;;;;;;;6.93;6.32;;;;;;;18.11;83.32;95325.69;5030657;28;20607;-83
2022/08/18 05:30:39;;;;;;;6.55;5.70;;;;;;;18.16;83.42;95311.94;5046449;28;20193;-83
2022/08/18 05:33:05;;;;;;;5.82;5.35;;;;;;;18.22;82.23;95309.31;5044923;28;20263;-81
2022/08/18 05:35:37;;;;;;;7.65;6.03;;;;;;;18.26;81.79;95314.97;5029907;28;20267;-82
2022/08/18 05:38:19;;;;;;;7.03;5.70;;;;;;;18.40;80.63;95300.84;5047035;28;20188;-84
2022/08/18 05:40:45;;;;;;;8.00;5.30;;;;;;;18.51;80.58;95299.44;5030269;28;20196;-83
2022/08/18 05:43:11;;;;;;;7.35;5.65;;;;;;;18.66;79.87;95300.06;5025610;28;20179;-84
2022/08/18 05:45:38;;;;;;;7.50;5.60;;;;;;;18.89;78.26;95289.91;5047543;28;20685;-83
2022/08/18 05:48:03;;;;;;;6.65;5.40;;;;;;;19.04;78.31;95288.88;5047788;28;20187;-81
2022/08/18 05:50:31;;;;;;;5.57;5.07;;;;;;;19.17;77.21;95289.66;5045446;28;20210;-83
2022/08/18 05:53:07;;;;;;;5.80;5.32;;;;;;;19.34;76.84;95278.66;5031349;28;20307;-82
2022/08/18 05:58:30;;;;;;;5.60;5.10;;;;;;;19.34;76.52;95283.91;5045052;28;20212;-83
2022/08/18 06:00:58;;;;;;;7.60;5.13;;;;;;;19.58;75.90;95279.81;5029245;28;20271;-81
2022/08/18 06:03:28;;;;;;;5.80;5.30;;;;;;;19.66;75.32;95277.75;5040327;28;20273;-82
2022/08/18 06:05:57;;;;;;;6.57;5.78;;;;;;;19.83;75.43;95275.41;5028883;28;20204;-82
2022/08/18 06:08:30;;;;;;;7.22;5.90;;;;;;;19.99;74.80;95274.13;5030959;28;20592;-82
2022/08/18 06:10:55;;;;;;;9.30;6.53;;;;;;;20.05;74.61;95281.16;5047166;28;20204;-84
2022/08/18 06:13:21;;;;;;;6.20;5.70;;;;;;;20.21;74.19;95279.84;5028370;28;20189;-82
2022/08/18 06:16:24;;;;;;;6.45;5.85;;;;;;;20.32;73.74;95279.16;5029984;28;20231;-80
2022/08/18 06:19:03;;;;;;;7.40;6.00;;;;;;;20.16;75.03;95279.69;5065306;28;20184;-84
2022/08/18 06:21:44;;;;;;;7.07;6.35;;;;;;;20.43;73.89;95281.13;5047665;28;20180;-82
2022/08/18 06:24:17;;;;;;;7.72;5.80;;;;;;;20.38;74.40;95287.00;5028495;28;20193;-84
2022/08/18 06:27:00;;;;;;;7.47;6.00;;;;;;;20.49;73.35;95290.81;5025302;28;20197;-82
2022/08/18 06:29:36;;;;;;;7.63;6.30;;;;;;;20.55;73.45;95297.06;5041920;28;20201;-83
2022/08/18 06:32:19;;;;;;;8.00;6.32;;;;;;;20.86;72.07;95309.41;5026103;28;20225;-81
2022/08/18 06:35:13;;;;;;;6.55;6.00;;;;;;;21.10;71.30;95305.06;5045928;28;20205;-82
2022/08/18 06:40:35;;;;;;;6.32;5.75;;;;;;;21.25;71.30;95313.47;5047695;28;20603;-84
2022/08/18 06:43:01;;;;;;;8.35;6.57;;;;;;;21.33;70.75;95322.97;5028953;28;20178;-80
2022/08/18 06:45:35;;;;;;;6.45;5.95;;;;;;;21.21;71.51;95326.31;5030758;28;20228;-84
2022/08/18 06:48:23;;;;;;;7.28;6.60;;;;;;;21.14;72.16;95314.19;5031701;28;20262;-84
2022/08/18 06:50:54;;;;;;;7.47;6.75;;;;;;;21.33;70.95;95310.56;5064788;28;20189;-82
2022/08/18 06:53:19;;;;;;;7.85;6.40;;;;;;;21.19;72.21;95319.59;5044803;28;20205;-83
2022/08/18 06:55:49;;;;;;;7.15;6.43;;;;;;;21.30;72.23;95331.34;5044253;28;20581;-82
2022/08/18 06:58:14;;;;;;;7.05;6.53;;;;;;;20.96;73.12;95328.19;5037968;28;20193;-83
2022/08/18 07:01:02;;;;;;;7.30;6.60;;;;;;;20.83;74.45;95326.44;5046278;28;20181;-82
2022/08/18 07:03:33;;;;;;;7.82;7.13;;;;;;;20.89;73.54;95324.78;5044284;28;20535;-82
2022/08/18 07:06:05;;;;;;;7.55;6.85;;;;;;;20.68;75.02;95326.00;5062623;28;20205;-82
2022/08/18 07:08:33;;;;;;;7.78;7.05;;;;;;;20.64;75.90;95333.50;5029420;28;20244;-82
2022/08/18 07:11:12;;;;;;;8.07;7.07;;;;;;;20.50;76.56;95331.22;5047968;28;20208;-85
2022/08/18 07:13:40;;;;;;;8.43;7.55;;;;;;;20.31;77.61;95338.97;5047384;28;20173;-81
2022/08/18 07:16:30;;;;;;;7.63;6.93;;;;;;;20.21;78.31;95348.38;5023484;28;20220;-83
2022/08/18 07:19:10;;;;;;;8.68;7.88;;;;;;;20.17;78.69;95348.00;5042920;28;20196;-82
2022/08/18 07:21:37;;;;;;;8.70;7.88;;;;;;;20.11;79.02;95364.66;5008724;28;20213;-83
2022/08/18 07:24:20;;;;;;;8.90;8.00;;;;;;;19.93;79.62;95368.00;5036223;28;20541;-82
2022/08/18 07:27:03;;;;;;;9.43;8.55;;;;;;;19.78;80.59;95368.25;5017232;28;20186;-84
2022/08/18 07:29:32;;;;;;;8.63;7.82;;;;;;;19.80;80.43;95370.72;5040994;28;20190;-82
2022/08/18 07:32:01;;;;;;;9.13;7.90;;;;;;;19.69;80.93;95368.69;5043102;28;20194;-83
2022/08/18 07:34:36;;;;;;;9.23;8.43;;;;;;;19.68;81.68;95359.19;5027827;28;20197;-83
2022/08/18 07:37:34;;;;;;;9.02;8.23;;;;;;;19.63;82.19;95361.66;5045914;28;20177;-83
2022/08/18 07:40:23;;;;;;;9.52;8.52;;;;;;;19.59;81.81;95360.44;5024094;28;20190;-82
2022/08/18 07:43:26;;;;;;;10.27;9.27;;;;;;;19.49;83.07;95364.28;5018039;28;20182;-82
2022/08/18 07:45:52;;;;;;;10.93;9.82;;;;;;;19.46;82.56;95367.34;5024033;28;20214;-81
2022/08/18 07:48:20;;;;;;;10.50;9.50;;;;;;;19.40;83.40;95365.53;5044035;28;20184;-82
2022/08/18 07:50:46;;;;;;;10.45;9.45;;;;;;;19.24;84.60;95361.50;5046353;28;20196;-83
2022/08/18 07:53:42;;;;;;;11.13;9.90;;;;;;;19.28;84.54;95369.81;5061066;28;20231;-82
2022/08/18 07:56:28;;;;;;;11.18;10.13;;;;;;;19.24;84.25;95369.41;5038376;28;20213;-82
2022/08/18 07:59:18;;;;;;;12.18;11.07;;;;;;;19.21;85.07;95369.00;5020048;28;20182;-81
2022/08/18 08:01:58;;;;;;;12.05;10.95;;;;;;;19.14;85.30;95374.28;5044556;28;20283;-82
2022/08/18 08:04:47;;;;;;;11.30;10.25;;;;;;;19.14;85.51;95374.28;5044711;28;20196;-81
2022/08/18 08:07:20;;;;;;;12.27;11.05;;;;;;;19.12;85.96;95364.97;5061631;28;20238;-82
2022/08/18 08:09:55;;;;;;;11.80;10.80;;;;;;;19.20;84.95;95356.88;5027504;28;20252;-83
2022/08/18 08:12:41;;;;;;;13.50;10.80;;;;;;;19.05;85.87;95349.19;5057293;28;20640;-82
2022/08/18 08:15:21;;;;;;;11.80;10.80;;;;;;;18.99;86.38;95350.00;5038065;28;20243;-82
2022/08/18 08:18:02;;;;;;;12.25;11.25;;;;;;;19.03;86.81;95348.59;5042513;28;20177;-83
2022/08/18 08:20:46;;;;;;;13.32;11.93;;;;;;;19.11;86.71;95355.47;5060501;28;20174;-81
2022/08/18 08:23:36;;;;;;;12.88;11.57;;;;;;;19.19;86.53;95361.31;5043691;28;20244;-83
2022/08/18 08:26:08;;;;;;;12.10;11.10;;;;;;;19.20;87.60;95356.88;5027272;28;20834;-84
2022/08/18 08:29:03;;;;;;;12.50;11.40;;;;;;;19.46;87.66;95362.06;5027461;28;20201;-82
2022/08/18 08:31:41;;;;;;;13.23;12.07;;;;;;;19.61;87.70;95361.03;5044956;28;20621;-84
2022/08/18 08:34:13;;;;;;;13.25;11.88;;;;;;;20.07;86.38;95368.75;5043933;28;20188;-82
2022/08/18 08:36:40;;;;;;;12.77;11.68;;;;;;;20.52;85.07;95372.16;5025351;28;20193;-81
2022/08/18 08:39:27;;;;;;;12.68;11.48;;;;;;;20.81;83.56;95362.00;5046752;28;20177;-82
2022/08/18 08:41:59;;;;;;;12.95;11.85;;;;;;;21.05;83.15;95366.47;5030398;28;20246;-82
2022/08/18 08:44:35;;;;;;;13.63;12.23;;;;;;;21.04;82.12;95364.84;5027976;28;20202;-81
2022/08/18 08:47:14;;;;;;;12.27;11.07;;;;;;;21.16;80.09;95368.38;5026797;28;20807;-83
2022/08/18 08:49:55;;;;;;;12.82;11.50;;;;;;;21.28;78.40;95354.50;5027079;28;20650;-81
2022/08/18 08:52:25;;;;;;;12.95;11.77;;;;;;;21.52;78.16;95353.63;5046471;28;20204;-81
2022/08/18 08:54:55;;;;;;;12.20;11.10;;;;;;;21.35;78.85;95352.59;5027091;28;20244;-81
2022/08/18 08:57:26;;;;;;;15.27;12.27;;;;;;;21.30;79.73;95350.63;5031661;28;20220;-83
2022/08/18 08:59:52;;;;;;;13.55;12.25;;;;;;;21.10;80.01;95363.97;5049204;28;20188;-82
2022/08/18 09:02:42;;;;;;;13.02;11.93;;;;;;;21.39;77.37;95361.72;5030918;28;20174;-81
2022/08/18 09:05:16;;;;;;;13.02;11.85;;;;;;;21.28;78.40;95357.13;5045543;28;20281;-84
2022/08/18 09:07:46;;;;;;;13.50;12.07;;;;;;;21.65;77.56;95339.47;5043976;28;20182;-82
2022/08/18 09:10:38;;;;;;;13.88;12.57;;;;;;;21.77;75.86;95312.06;5049007;28;20229;-83
2022/08/18 09:13:22;;;;;;;11.25;10.23;;;;;;;22.06;74.07;95312.28;5048175;28;20185;-81
2022/08/18 09:15:56;;;;;;;12.57;11.40;;;;;;;22.31;72.57;95302.41;5048235;28;20212;-84
2022/08/18 09:19:05;;;;;;;13.88;12.68;;;;;;;22.39;71.59;95295.97;5048178;28;20173;-84
2022/08/18 09:21:43;;;;;;;14.00;12.80;;;;;;;22.46;70.18;95291.41;5046992;28;20188;-84
2022/08/18 09:24:26;;;;;;;13.60;12.30;;;;;;;22.40;71.62;95302.09;5049353;28;20176;-84
2022/08/18 09:27:22;;;;;;;14.70;13.30;;;;;;;22.44;69.71;95308.50;5033393;28;20504;-83
2022/08/18 09:29:51;;;;;;;16.30;13.15;;;;;;;22.48;71.41;95322.91;5063133;28;20192;-81
2022/08/18 09:32:19;;;;;;;13.43;12.02;;;;;;;22.30;70.53;95326.44;5049319;28;20720;-83
2022/08/18 09:35:12;;;;;;;14.80;13.40;;;;;;;22.18;70.57;95329.06;5063922;28;20208;-81
2022/08/18 09:41:30;;;;;;;14.80;13.30;;;;;;;22.51;69.81;95328.56;5021569;28;20185;-82
2022/08/18 09:43:33;;;;;;;15.80;14.30;;;;;;;22.18;70.71;95342.28;5066564;28;20204;-82
2022/08/18 09:46:03;;;;;;;15.40;13.90;;;;;;;22.18;70.43;95338.84;5031478;28;20299;-81
2022/08/18 09:48:31;;;;;;;14.95;13.43;;;;;;;22.39;69.94;95350.72;5048274;28;20177;-81
2022/08/18 09:51:14;;;;;;;14.35;13.00;;;;;;;22.22;69.83;95346.06;5032616;28;20258;-83
2022/08/18 09:53:46;;;;;;;14.57;13.25;;;;;;;22.27;70.38;95356.00;5028450;28;20194;-81
2022/08/18 09:56:17;;;;;;;15.07;13.82;;;;;;;22.18;68.96;95355.50;5033760;28;20739;-82
2022/08/18 09:58:52;;;;;;;15.52;14.13;;;;;;;21.87;72.70;95360.97;5038309;28;20181;-83
2022/08/18 10:01:35;;;;;;;15.25;13.70;;;;;;;21.81;71.82;95364.47;5025060;28;20204;-83
2022/08/18 10:04:12;;;;;;;15.82;14.48;;;;;;;21.66;72.33;95362.22;5040015;28;20190;-82
2022/08/18 10:06:38;;;;;;;17.20;15.18;;;;;;;21.62;73.19;95368.97;5045055;28;20186;-82
2022/08/18 10:09:20;;;;;;;14.82;13.38;;;;;;;21.49;73.35;95375.22;5048947;28;20181;-80
2022/08/18 10:12:16;;;;;;;16.58;15.15;;;;;;;21.04;75.70;95372.78;5063233;28;20209;-79
2022/08/18 10:15:05;;;;;;;14.30;13.10;;;;;;;20.58;78.85;95360.78;5001755;28;20224;-80
2022/08/18 10:18:14;;;;;;;16.25;14.55;;;;;;;20.64;79.09;95362.53;5088846;28;20185;-79
2022/08/18 10:20:54;;;;;;;18.00;16.20;;;;;;;20.44;79.80;95348.69;4981966;28;20243;-78
2022/08/18 10:23:59;;;;;;;18.10;16.42;;;;;;;20.85;78.05;95352.66;4981696;28;20192;-80
2022/08/18 10:26:30;;;;;;;18.05;16.45;;;;;;;21.25;75.44;95339.06;4914356;29;20545;-81
2022/08/18 10:29:02;;;;;;;18.92;17.08;;;;;;;21.79;73.58;95325.06;4934589;29;20206;-82
2022/08/18 10:31:29;;;;;;;17.92;16.25;;;;;;;21.89;71.17;95325.34;4915743;29;20241;-81
2022/08/18 10:34:07;;;;;;;17.70;15.90;;;;;;;22.37;71.55;95315.78;4910240;29;20320;-81
2022/08/18 10:36:36;;;;;;;18.13;16.52;;;;;;;22.47;70.62;95314.19;4901974;29;20197;-82
2022/08/18 10:39:05;;;;;;;17.95;16.10;;;;;;;22.66;69.49;95301.66;4933436;29;20198;-82
2022/08/18 10:41:32;;;;;;;17.58;15.98;;;;;;;22.57;69.44;95303.84;4915798;29;20224;-80
2022/08/18 10:43:59;;;;;;;18.63;16.92;;;;;;;22.75;68.61;95302.94;4926897;29;20245;-79
2022/08/18 10:46:28;;;;;;;17.90;16.30;;;;;;;23.44;67.09;95311.91;4943014;28;20190;-80
2022/08/18 10:49:21;;;;;;;16.58;15.07;;;;;;;23.17;66.70;95311.59;4942770;29;20190;-80
2022/08/18 10:51:59;;;;;;;17.58;15.93;;;;;;;23.56;64.93;95308.44;4919527;29;20721;-82
2022/08/18 10:54:55;;;;;;;18.73;17.05;;;;;;;23.65;64.75;95307.84;4931132;29;20581;-82
2022/08/18 10:57:29;;;;;;;17.13;15.57;;;;;;;23.84;64.19;95302.38;5000322;28;20199;-83
2022/08/18 11:00:17;;;;;;;16.30;14.75;;;;;;;23.35;64.39;95293.97;5006001;28;20680;-83
2022/08/18 11:02:53;;;;;;;19.38;17.55;;;;;;;22.60;67.08;95286.69;5045354;28;20314;-83
2022/08/18 11:05:23;;;;;;;18.38;16.13;;;;;;;22.87;67.29;95289.72;5058508;28;20334;-82
2022/08/18 11:07:56;;;;;;;19.58;17.77;;;;;;;23.10;65.50;95299.50;5043902;28;20265;-81
2022/08/18 11:10:35;;;;;;;19.63;17.83;;;;;;;22.99;66.50;95292.38;5024462;28;20292;-81
2022/08/18 11:13:13;;;;;;;19.55;17.52;;;;;;;23.29;64.66;95298.34;5041414;28;20182;-82
2022/08/18 11:16:12;;;;;;;17.85;16.25;;;;;;;23.24;64.52;95300.09;5025580;28;20546;-82
2022/08/18 11:18:49;;;;;;;16.98;15.43;;;;;;;23.89;63.00;95300.63;5025160;28;20181;-82
2022/08/18 11:21:30;;;;;;;20.05;18.02;;;;;;;24.06;62.79;95300.69;5023251;28;20185;-81
2022/08/18 11:24:11;;;;;;;18.48;16.80;;;;;;;24.23;61.68;95301.53;5041701;28;20185;-81
2022/08/18 11:26:55;;;;;;;19.90;18.10;;;;;;;24.17;60.78;95291.06;5060402;28;20634;-82
2022/08/18 11:29:37;;;;;;;16.85;15.27;;;;;;;24.45;60.77;95290.22;5026096;28;20186;-81
2022/08/18 11:32:11;;;;;;;16.15;14.68;;;;;;;24.57;58.69;95298.94;5042936;28;20197;-82
2022/08/18 11:34:42;;;;;;;14.18;13.05;;;;;;;24.79;59.06;95297.16;5021853;28;20206;-82
2022/08/18 11:37:23;;;;;;;16.42;14.73;;;;;;;24.81;56.17;95296.91;5042249;28;20227;-82
2022/08/18 11:39:50;;;;;;;14.75;13.32;;;;;;;24.17;58.47;95283.09;5042989;28;20177;-83
2022/08/18 11:42:17;;;;;;;15.70;14.10;;;;;;;24.07;59.37;95285.56;5042553;28;20210;-82
2022/08/18 11:44:43;;;;;;;15.77;14.38;;;;;;;22.96;63.89;95279.59;5026679;28;20295;-82
2022/08/18 11:47:17;;;;;;;15.18;13.80;;;;;;;23.69;61.36;95287.00;5044600;28;20594;-82
2022/08/18 11:49:56;;;;;;;15.07;13.68;;;;;;;23.94;60.92;95282.19;5040068;28;20177;-81
2022/08/18 11:52:26;;;;;;;15.52;14.13;;;;;;;24.08;59.33;95280.03;5038831;28;20677;-82
2022/08/18 11:54:59;;;;;;;14.02;12.70;;;;;;;24.44;58.96;95278.00;5042181;28;20216;-82
2022/08/18 11:57:30;;;;;;;13.07;11.88;;;;;;;24.39;57.77;95268.13;5039399;28;20296;-83
2022/08/18 11:59:56;;;;;;;12.65;11.43;;;;;;;24.44;56.31;95265.53;5060898;28;20211;-83
2022/08/18 12:02:24;;;;;;;13.60;12.02;;;;;;;24.28;56.37;95269.75;5028262;28;20696;-83
2022/08/18 12:05:01;;;;;;;12.35;11.35;;;;;;;23.87;57.40;95262.94;5042917;28;20286;-83